Time;durP1;ratioP1;P1;durP2;ratioP2;P2;SDS_P1;SDS_P2;PMS_P1;PMS_P2;Temp;Humidity;BMP_temperature;BMP_pressure;BME280_temperature;BME280_humidity;BME280_pressure;Samples;Min_cycle;Max_cycle;Signal;HPM_P1;HPM_P2
2021/09/11 00:00:17;;;;;;;21.02;12.63;;;;;;;11.22;82.78;99235.23;3886691;90;21134;-82
2021/09/11 00:06:20;;;;;;;25.37;16.55;;;;;;;11.24;83.34;99243.88;3887851;90;21734;-83
2021/09/11 00:12:21;;;;;;;25.65;15.83;;;;;;;11.10;82.55;99242.52;3887630;90;21611;-83
2021/09/11 00:18:23;;;;;;;24.00;14.25;;;;;;;10.94;82.64;99235.67;3885062;90;21066;-83
2021/09/11 00:24:24;;;;;;;20.35;13.93;;;;;;;10.77;82.74;99230.73;3771803;93;21657;-82
2021/09/11 00:30:25;;;;;;;19.90;13.68;;;;;;;10.56;82.91;99229.85;3832464;91;22279;-83
2021/09/11 00:36:27;;;;;;;24.55;15.03;;;;;;;10.48;83.40;99228.73;3837167;91;21630;-83
2021/09/11 00:42:29;;;;;;;24.85;13.80;;;;;;;10.47;83.48;99220.33;3835831;91;21113;-83
2021/09/11 00:48:30;;;;;;;20.27;13.70;;;;;;;10.47;83.62;99219.75;3844128;91;21145;-82
2021/09/11 00:54:32;;;;;;;23.20;14.58;;;;;;;10.54;83.88;99223.17;3839427;91;21170;-83
2021/09/11 01:00:33;;;;;;;22.60;13.85;;;;;;;10.37;83.48;99217.63;3780206;92;21102;-84
2021/09/11 01:06:35;;;;;;;25.10;13.65;;;;;;;10.23;83.79;99217.98;3845374;91;21173;-82
2021/09/11 01:12:39;;;;;;;23.80;14.45;;;;;;;10.11;83.68;99215.45;3832020;91;21118;-82
2021/09/11 01:18:41;;;;;;;19.10;12.15;;;;;;;9.96;83.75;99217.72;3835848;91;21082;-82
2021/09/11 01:25:05;;;;;;;21.73;12.25;;;;;;;10.13;85.07;99220.75;3871715;90;21093;-84
2021/09/11 01:31:07;;;;;;;19.87;12.00;;;;;;;10.10;84.81;99227.56;3887487;90;21156;-82
2021/09/11 01:37:11;;;;;;;20.15;11.95;;;;;;;10.02;84.39;99225.26;3881551;90;21656;-82
2021/09/11 01:43:12;;;;;;;22.07;12.23;;;;;;;9.91;84.91;99227.02;3886641;89;21622;-82
2021/09/11 01:49:14;;;;;;;17.65;11.55;;;;;;;9.88;84.46;99228.32;3886754;90;21036;-83
2021/09/11 01:55:17;;;;;;;18.15;11.53;;;;;;;9.79;84.62;99235.98;3891386;90;21038;-82
2021/09/11 02:01:18;;;;;;;19.77;12.23;;;;;;;9.72;85.22;99229.00;3886549;89;21989;-82
2021/09/11 02:07:20;;;;;;;21.35;14.47;;;;;;;9.64;84.73;99234.13;3907111;89;21555;-82
2021/09/11 02:13:21;;;;;;;22.50;12.85;;;;;;;9.51;84.77;99226.66;3913567;90;21086;-82
2021/09/11 02:19:23;;;;;;;16.05;11.12;;;;;;;9.38;84.68;99227.40;3910452;90;21177;-83
2021/09/11 02:25:25;;;;;;;20.32;12.37;;;;;;;9.27;84.88;99225.63;3900333;90;21066;-81
2021/09/11 02:31:26;;;;;;;21.00;13.62;;;;;;;9.38;85.19;99227.40;3909696;89;21617;-82
2021/09/11 02:37:27;;;;;;;22.37;13.98;;;;;;;9.25;85.37;99231.45;3897844;90;21093;-81
2021/09/11 02:43:29;;;;;;;19.73;13.75;;;;;;;9.35;85.40;99224.59;3899035;89;21088;-81
2021/09/11 02:49:30;;;;;;;18.87;12.53;;;;;;;9.19;85.50;99226.04;3909643;89;21134;-82
2021/09/11 02:55:31;;;;;;;16.90;12.10;;;;;;;9.21;85.81;99228.41;3907450;89;21074;-84
2021/09/11 03:01:33;;;;;;;17.62;12.60;;;;;;;9.49;86.25;99227.59;3902486;90;21120;-82
2021/09/11 03:07:34;;;;;;;17.32;12.30;;;;;;;9.35;85.46;99230.05;3911262;89;21126;-82
2021/09/11 03:13:35;;;;;;;21.62;13.90;;;;;;;9.25;85.90;99230.09;3878897;90;21741;-83
2021/09/11 03:19:37;;;;;;;23.62;15.18;;;;;;;9.04;85.36;99234.30;3876751;90;21115;-82
2021/09/11 03:25:38;;;;;;;21.73;13.80;;;;;;;8.93;85.61;99218.27;3871861;91;21086;-82
2021/09/11 03:31:39;;;;;;;20.25;13.10;;;;;;;8.81;85.68;99223.87;3898686;90;21070;-82
2021/09/11 03:37:41;;;;;;;21.80;13.62;;;;;;;8.71;85.65;99218.96;3893811;90;21140;-83
2021/09/11 03:43:43;;;;;;;25.57;14.23;;;;;;;8.61;85.81;99220.34;3898499;90;21090;-82
2021/09/11 03:49:44;;;;;;;21.15;13.18;;;;;;;8.56;86.02;99215.15;3899671;90;21125;-82
2021/09/11 03:55:45;;;;;;;22.20;14.55;;;;;;;8.48;85.97;99198.97;3882862;90;40679;-82
2021/09/11 04:01:47;;;;;;;20.85;13.55;;;;;;;8.41;86.00;99198.81;3815009;91;21259;-82
2021/09/11 04:07:49;;;;;;;19.00;12.30;;;;;;;8.37;86.40;99200.09;3810974;89;21079;-82
2021/09/11 04:13:50;;;;;;;21.65;14.05;;;;;;;8.42;86.82;99201.19;3777934;91;21183;-81
2021/09/11 04:19:52;;;;;;;24.63;14.47;;;;;;;8.44;86.62;99194.78;3760897;91;21135;-83
2021/09/11 04:25:53;;;;;;;21.97;14.18;;;;;;;8.43;86.71;99204.69;3853976;91;21107;-81
2021/09/11 04:31:55;;;;;;;23.32;14.45;;;;;;;8.33;86.52;99205.25;3816054;90;21152;-82
2021/09/11 04:37:57;;;;;;;24.27;14.65;;;;;;;8.47;87.46;99206.34;3899278;90;21265;-81
2021/09/11 04:43:59;;;;;;;25.32;13.72;;;;;;;8.44;86.92;99202.97;3871532;91;21089;-81
2021/09/11 04:50:00;;;;;;;21.17;12.88;;;;;;;8.38;86.86;99206.35;3892148;90;21063;-83
2021/09/11 04:56:02;;;;;;;18.65;13.20;;;;;;;8.34;87.25;99217.73;3871908;89;21146;-81
2021/09/11 05:02:04;;;;;;;21.10;13.70;;;;;;;8.37;87.55;99219.19;3869220;91;21114;-82
2021/09/11 05:08:05;;;;;;;22.40;13.55;;;;;;;8.50;87.63;99222.03;3895620;91;21145;-82
2021/09/11 05:21:34;;;;;;;23.53;13.80;;;;;;;8.63;88.11;99227.57;3870587;90;21165;-81
2021/09/11 05:27:39;;;;;;;22.10;14.00;;;;;;;8.74;88.48;99231.92;3881161;90;21090;-81
2021/09/11 05:33:40;;;;;;;18.48;12.60;;;;;;;8.86;88.93;99224.40;3855019;91;21102;-81
2021/09/11 05:39:41;;;;;;;20.48;14.00;;;;;;;9.16;89.48;99224.63;3856141;91;21121;-81
2021/09/11 05:45:43;;;;;;;24.20;14.53;;;;;;;9.58;89.38;99232.84;3847178;90;21183;-81
2021/09/11 05:51:44;;;;;;;21.55;14.10;;;;;;;9.85;89.49;99233.16;3834594;91;21169;-81
2021/09/11 05:57:45;;;;;;;26.65;16.97;;;;;;;10.10;89.38;99226.95;3853278;91;21613;-84
2021/09/11 06:03:46;;;;;;;33.35;20.57;;;;;;;10.38;89.85;99220.57;3862895;90;21375;-82
2021/09/11 06:09:48;;;;;;;34.15;22.85;;;;;;;10.62;90.30;99222.89;3898699;89;21653;-81
2021/09/11 06:15:49;;;;;;;37.17;20.95;;;;;;;10.93;90.75;99220.41;3859990;91;21058;-81
2021/09/11 06:21:51;;;;;;;25.55;18.07;;;;;;;11.33;90.40;99216.39;3870100;90;21147;-82
2021/09/11 06:27:56;;;;;;;28.87;17.98;;;;;;;11.68;90.88;99226.38;3851734;91;21078;-82
2021/09/11 06:33:57;;;;;;;25.92;17.00;;;;;;;12.02;90.71;99232.59;3840083;91;21521;-82
2021/09/11 06:39:58;;;;;;;21.90;15.32;;;;;;;12.28;90.79;99234.59;3858695;91;21622;-84
2021/09/11 06:46:01;;;;;;;23.92;15.55;;;;;;;12.53;90.47;99240.26;3915284;89;21404;-81
2021/09/11 06:52:03;;;;;;;26.77;17.32;;;;;;;12.76;90.39;99231.80;3918255;90;21438;-84
2021/09/11 06:58:04;;;;;;;24.90;16.50;;;;;;;13.03;90.34;99233.16;3925390;90;21134;-82
2021/09/11 07:04:12;;;;;;;23.57;16.20;;;;;;;13.28;90.48;99233.45;3923163;90;21158;-82
2021/09/11 07:10:13;;;;;;;23.75;14.40;;;;;;;13.54;90.43;99233.17;3907341;90;21568;-82
2021/09/11 07:16:15;;;;;;;19.02;13.58;;;;;;;13.88;90.50;99228.12;3915489;90;21046;-82
2021/09/11 07:22:16;;;;;;;25.88;12.73;;;;;;;14.23;90.31;99223.42;3850015;91;21083;-81
2021/09/11 07:28:17;;;;;;;18.67;11.40;;;;;;;14.60;89.73;99222.25;3866487;91;21692;-83
2021/09/11 07:34:18;;;;;;;20.27;11.97;;;;;;;14.96;89.55;99226.51;3846886;91;21173;-83
2021/09/11 07:40:40;;;;;;;17.42;11.48;;;;;;;15.32;89.37;99234.86;3910405;90;22226;-82
2021/09/11 07:46:42;;;;;;;18.77;10.25;;;;;;;15.71;89.34;99227.81;3837280;90;21134;-82
2021/09/11 07:52:45;;;;;;;22.32;10.48;;;;;;;16.20;88.77;99232.98;3847425;91;21174;-82
2021/09/11 07:58:48;;;;;;;16.35;10.72;;;;;;;16.73;88.41;99244.39;3840446;91;21104;-85
2021/09/11 08:04:50;;;;;;;21.23;9.60;;;;;;;17.26;87.22;99241.84;3840290;91;21079;-82
2021/09/11 08:10:53;;;;;;;12.68;6.42;;;;;;;17.82;87.01;99235.60;3858720;90;21129;-83
2021/09/11 08:16:54;;;;;;;7.78;5.40;;;;;;;18.33;85.97;99231.08;3840610;91;21126;-83
2021/09/11 08:23:02;;;;;;;10.88;4.45;;;;;;;18.94;82.20;99228.05;3874523;90;21195;-83
2021/09/11 08:29:03;;;;;;;6.85;4.85;;;;;;;19.45;81.83;99232.40;3892870;90;21109;-84
2021/09/11 08:35:08;;;;;;;6.50;4.12;;;;;;;19.82;80.95;99226.45;3890619;90;22288;-83
2021/09/11 08:41:11;;;;;;;7.87;4.60;;;;;;;20.27;78.69;99221.65;3899120;90;22439;-82
2021/09/11 08:47:12;;;;;;;7.75;4.60;;;;;;;20.52;78.45;99226.78;3902778;90;21728;-83
2021/09/11 08:59:49;;;;;;;8.75;4.80;;;;;;;21.08;76.63;99221.77;3733072;94;21220;-83
2021/09/11 09:05:51;;;;;;;8.43;4.83;;;;;;;21.44;76.21;99216.73;3766499;93;21229;-83
2021/09/11 09:11:52;;;;;;;9.20;4.62;;;;;;;21.97;75.06;99201.24;3758588;92;21202;-83
2021/09/11 09:17:57;;;;;;;8.90;4.97;;;;;;;22.70;72.55;99199.42;3756603;92;22510;-83
2021/09/11 09:24:03;;;;;;;6.33;3.27;;;;;;;23.62;72.32;99199.66;3761237;93;21706;-84
2021/09/11 09:30:06;;;;;;;10.13;3.58;;;;;;;24.75;66.51;99197.29;3817588;91;21467;-83
2021/09/11 09:36:07;;;;;;;7.50;3.33;;;;;;;25.56;66.80;99196.64;3835152;92;21076;-84
2021/09/11 09:42:11;;;;;;;4.03;2.67;;;;;;;26.67;62.96;99201.48;3824363;91;21086;-84
2021/09/11 09:48:14;;;;;;;7.83;2.80;;;;;;;27.15;62.38;99190.35;3832013;92;21550;-84
2021/09/11 09:54:19;;;;;;;4.97;2.65;;;;;;;28.01;60.72;99188.07;3801352;93;21126;-83
2021/09/11 10:00:20;;;;;;;6.42;2.45;;;;;;;28.96;58.34;99182.47;3877388;89;21154;-85
2021/09/11 10:06:32;;;;;;;3.70;2.40;;;;;;;29.21;57.36;99178.94;3886661;90;21646;-83
2021/09/11 10:12:46;;;;;;;5.72;2.22;;;;;;;29.67;51.50;99172.64;3876967;90;21116;-84
2021/09/11 10:18:47;;;;;;;2.83;2.15;;;;;;;30.12;48.80;99182.98;3890489;89;53712;-83
2021/09/11 10:24:59;;;;;;;4.40;2.02;;;;;;;30.83;49.61;99188.19;3891878;90;21348;-83
2021/09/11 10:31:10;;;;;;;3.70;2.35;;;;;;;31.18;46.94;99184.34;3887994;90;21185;-82
2021/09/11 10:37:12;;;;;;;5.47;2.55;;;;;;;31.39;45.46;99187.09;3876465;90;21516;-84
2021/09/11 10:43:19;;;;;;;6.20;2.60;;;;;;;31.20;42.29;99180.33;3917234;88;21102;-85
2021/09/11 10:49:34;;;;;;;8.70;3.25;;;;;;;31.53;41.15;99176.97;3921942;88;21046;-83
2021/09/11 10:55:39;;;;;;;8.10;2.10;;;;;;;31.56;41.00;99175.16;3871517;89;38993;-84
2021/09/11 11:02:37;;;;;;;3.60;2.50;;;;;;;31.67;39.31;99166.05;3923074;89;21455;-84
2021/09/11 11:08:38;;;;;;;5.17;2.40;;;;;;;31.75;38.58;99164.88;3914215;89;21130;-86
2021/09/11 11:14:46;;;;;;;3.55;2.45;;;;;;;31.37;33.88;99165.64;3913843;89;21143;-84
2021/09/11 11:20:49;;;;;;;4.67;2.70;;;;;;;31.40;34.78;99157.55;3920226;89;21086;-83
2021/09/11 11:26:50;;;;;;;5.90;2.75;;;;;;;30.76;32.45;99158.35;3935777;89;21144;-83
2021/09/11 11:32:52;;;;;;;4.20;2.80;;;;;;;30.09;31.92;99150.13;3928995;89;21179;-83
2021/09/11 11:38:53;;;;;;;3.58;2.17;;;;;;;29.45;30.95;99144.83;3926612;89;21134;-83
2021/09/11 11:44:55;;;;;;;4.15;2.92;;;;;;;29.13;32.78;99139.78;3914185;89;21039;-84
2021/09/11 11:50:56;;;;;;;4.22;2.50;;;;;;;28.91;30.47;99133.25;3895421;90;21101;-83
2021/09/11 11:57:08;;;;;;;5.08;2.62;;;;;;;28.30;32.78;99129.52;3896563;90;21043;-82
2021/09/11 12:03:36;;;;;;;3.35;2.45;;;;;;;28.05;32.72;99123.91;3898483;90;21235;-83
2021/09/11 12:09:48;;;;;;;5.33;2.33;;;;;;;27.63;34.51;99122.88;3840676;91;21113;-83
2021/09/11 12:15:50;;;;;;;5.47;2.10;;;;;;;27.23;33.90;99120.48;3893984;90;21132;-84
2021/09/11 12:21:51;;;;;;;5.58;2.52;;;;;;;26.85;33.94;99106.49;3881936;90;21580;-84
2021/09/11 12:27:53;;;;;;;4.08;2.40;;;;;;;26.77;33.24;99111.71;3820099;92;21572;-84
2021/09/11 12:34:03;;;;;;;5.53;2.40;;;;;;;26.60;34.64;99101.37;3819359;90;21112;-81
2021/09/11 12:40:05;;;;;;;6.67;2.50;;;;;;;26.36;34.62;99092.98;3824035;91;21159;-84
2021/09/11 12:46:07;;;;;;;3.27;2.20;;;;;;;26.23;35.52;99103.69;3823702;92;21766;-84
2021/09/11 12:52:10;;;;;;;5.20;2.60;;;;;;;25.99;35.49;99091.05;3818755;92;21218;-84
2021/09/11 12:58:11;;;;;;;11.08;2.50;;;;;;;25.83;35.52;99084.41;3802478;92;21092;-83
2021/09/11 13:04:18;;;;;;;5.25;2.17;;;;;;;25.53;36.60;99081.27;3818308;92;21093;-83
2021/09/11 13:10:20;;;;;;;9.38;2.80;;;;;;;25.43;36.23;99078.98;3820952;92;21485;-84
2021/09/11 13:16:21;;;;;;;5.67;2.45;;;;;;;25.33;36.88;99073.22;3817559;92;21175;-84
2021/09/11 13:22:22;;;;;;;4.17;2.42;;;;;;;25.24;36.34;99080.26;3817566;91;21115;-83
2021/09/11 13:28:23;;;;;;;4.95;2.60;;;;;;;25.27;36.59;99074.50;3836816;90;21118;-85
2021/09/11 13:34:30;;;;;;;6.25;2.42;;;;;;;25.16;37.21;99072.03;3842269;90;21696;-83
2021/09/11 13:40:29;;;;;;;3.98;2.62;;;;;;;25.03;36.75;99068.63;3833932;90;21573;-85
2021/09/11 13:46:32;;;;;;;5.85;2.90;;;;;;;25.03;36.75;99068.63;3877152;90;21125;-85
2021/09/11 13:52:34;;;;;;;3.65;2.25;;;;;;;24.97;37.74;99069.90;3869796;90;21043;-85
2021/09/11 13:58:36;;;;;;;7.20;2.70;;;;;;;24.91;38.15;99055.59;3844076;90;21062;-86
2021/09/11 14:04:38;;;;;;;3.95;2.35;;;;;;;24.82;38.44;99051.42;3844997;90;21165;-85
2021/09/11 14:10:40;;;;;;;3.45;2.30;;;;;;;24.70;39.15;99052.38;3841318;90;21065;-84
2021/09/11 14:16:41;;;;;;;7.08;2.85;;;;;;;24.44;40.03;99053.28;3910241;89;21245;-84
2021/09/11 14:22:47;;;;;;;5.95;2.77;;;;;;;24.40;40.04;99053.44;3842325;90;21104;-85
2021/09/11 14:28:48;;;;;;;6.05;3.22;;;;;;;24.27;40.79;99047.84;3861076;90;22246;-84
2021/09/11 14:34:49;;;;;;;5.47;3.30;;;;;;;24.18;41.08;99050.00;3863369;90;21166;-85
2021/09/11 14:40:50;;;;;;;5.17;2.90;;;;;;;24.22;40.96;99051.25;3859838;90;21114;-84
2021/09/11 14:46:52;;;;;;;7.22;3.20;;;;;;;24.17;41.34;99050.47;3866293;90;21133;-84
2021/09/11 14:52:53;;;;;;;4.35;2.90;;;;;;;24.07;41.38;99047.52;3862615;90;21101;-84
2021/09/11 14:58:54;;;;;;;5.92;3.30;;;;;;;23.98;42.11;99051.67;3857827;90;21116;-84
2021/09/11 15:05:00;;;;;;;6.50;4.03;;;;;;;23.88;42.24;99049.45;3872211;90;21655;-85
2021/09/11 15:11:04;;;;;;;4.67;3.37;;;;;;;23.82;42.60;99051.30;3855327;90;21068;-84
2021/09/11 15:17:07;;;;;;;7.92;3.27;;;;;;;23.72;42.39;99046.16;3855529;90;21142;-85
2021/09/11 15:23:11;;;;;;;5.53;3.17;;;;;;;23.64;43.02;99047.69;3858128;90;21108;-85
2021/09/11 15:29:17;;;;;;;4.37;2.55;;;;;;;23.52;43.18;99045.80;3880090;90;21725;-85
2021/09/11 15:35:19;;;;;;;5.87;2.92;;;;;;;23.40;43.58;99034.88;3876889;90;21198;-84
2021/09/11 15:41:20;;;;;;;6.20;2.80;;;;;;;23.24;44.37;99033.69;3881042;90;21098;-85
2021/09/11 15:47:22;;;;;;;6.40;3.27;;;;;;;23.13;44.64;99032.72;3845441;90;21074;-84
2021/09/11 15:53:31;;;;;;;4.17;3.05;;;;;;;22.98;45.09;99035.91;3846006;91;21641;-83
2021/09/11 15:59:38;;;;;;;6.03;3.30;;;;;;;22.90;45.46;99044.38;3842981;90;21113;-84
2021/09/11 16:05:43;;;;;;;6.90;3.20;;;;;;;22.80;45.99;99044.16;3907730;89;21679;-84
2021/09/11 16:11:44;;;;;;;7.37;3.87;;;;;;;22.66;46.34;99041.13;3896835;89;21040;-85
2021/09/11 16:17:46;;;;;;;6.65;4.12;;;;;;;22.50;46.94;99044.86;3910235;89;21094;-84
2021/09/11 16:23:47;;;;;;;8.78;6.28;;;;;;;22.34;47.34;99042.85;3888971;89;21130;-84
2021/09/11 16:29:51;;;;;;;9.30;5.95;;;;;;;22.07;47.56;99046.19;3847817;90;21127;-84
2021/09/11 16:35:52;;;;;;;32.05;6.17;;;;;;;21.77;48.18;99037.69;3843692;90;21065;-84
2021/09/11 16:41:53;;;;;;;16.23;7.50;;;;;;;21.48;49.41;99044.75;3851691;90;21114;-85
2021/09/11 16:48:05;;;;;;;23.15;11.63;;;;;;;21.18;50.71;99039.13;3840454;90;21098;-84
2021/09/11 16:54:07;;;;;;;29.57;16.87;;;;;;;20.92;51.54;99045.08;3841002;90;21043;-84
2021/09/11 17:00:10;;;;;;;32.78;20.45;;;;;;;20.67;52.09;99043.00;3856339;90;21169;-84
2021/09/11 17:06:11;;;;;;;102.92;55.08;;;;;;;20.40;52.91;99042.60;3840048;91;21463;-84
2021/09/11 17:12:14;;;;;;;65.65;39.23;;;;;;;20.09;53.65;99042.20;3848788;90;21221;-84
2021/09/11 17:18:16;;;;;;;78.50;43.28;;;;;;;19.80;54.47;99037.21;3846453;91;22304;-84
2021/09/11 17:24:19;;;;;;;58.68;36.68;;;;;;;19.51;55.31;99039.73;3838832;90;21060;-84
2021/09/11 17:30:24;;;;;;;40.83;23.27;;;;;;;19.24;56.13;99041.33;3813679;92;21605;-84
2021/09/11 17:36:25;;;;;;;32.17;16.90;;;;;;;18.99;57.03;99050.02;3819233;92;21710;-84
2021/09/11 17:42:27;;;;;;;23.98;15.65;;;;;;;18.68;58.16;99048.87;3814502;91;21540;-84
2021/09/11 17:48:34;;;;;;;27.70;17.80;;;;;;;18.51;59.22;99057.56;3815371;92;22457;-84
2021/09/11 17:54:36;;;;;;;39.15;26.07;;;;;;;18.29;60.12;99068.23;3821221;92;21095;-85
2021/09/11 18:00:48;;;;;;;34.33;23.70;;;;;;;18.03;60.93;99074.65;3822529;92;21584;-84
2021/09/11 18:06:55;;;;;;;35.05;21.87;;;;;;;17.89;61.31;99076.88;3808019;92;21104;-84
2021/09/11 18:12:59;;;;;;;38.85;24.67;;;;;;;17.67;61.96;99078.42;3824896;92;21570;-84
2021/09/11 18:19:02;;;;;;;37.73;21.10;;;;;;;17.39;62.77;99092.66;3825940;92;21114;-84
2021/09/11 18:25:07;;;;;;;40.30;24.80;;;;;;;17.06;63.49;99099.26;3853909;91;21092;-84
2021/09/11 18:31:09;;;;;;;31.33;21.02;;;;;;;16.85;64.17;99109.19;3838331;91;22157;-84
2021/09/11 18:37:14;;;;;;;37.78;25.68;;;;;;;16.75;65.13;99107.36;3807124;92;21158;-85
2021/09/11 18:43:23;;;;;;;41.15;23.83;;;;;;;16.61;65.48;99106.14;3796826;92;21162;-84
2021/09/11 18:49:26;;;;;;;41.77;24.07;;;;;;;16.52;66.32;99108.59;3819129;92;22149;-84
2021/09/11 18:55:35;;;;;;;40.10;26.42;;;;;;;16.32;66.92;99120.64;3813795;92;21173;-84
2021/09/11 19:01:36;;;;;;;48.90;28.02;;;;;;;16.17;67.29;99119.19;3823996;91;21085;-84
2021/09/11 19:07:38;;;;;;;45.55;30.00;;;;;;;16.03;67.90;99117.34;3814521;92;21042;-84
2021/09/11 19:13:39;;;;;;;60.50;37.93;;;;;;;15.76;68.26;99111.45;3709485;92;9999954;-85
2021/09/11 19:19:44;;;;;;;52.08;33.13;;;;;;;15.57;68.91;99111.39;3808442;92;21086;-84
2021/09/11 19:25:50;;;;;;;47.45;30.15;;;;;;;15.51;69.50;99112.44;3805764;91;21081;-84
2021/09/11 19:31:51;;;;;;;50.88;32.00;;;;;;;15.38;70.10;99110.53;3835416;91;21182;-84
2021/09/11 19:37:54;;;;;;;46.83;28.62;;;;;;;15.08;70.48;99117.96;3844771;91;21965;-83
2021/09/11 19:44:04;;;;;;;42.70;31.75;;;;;;;15.15;71.66;99126.80;3909150;90;21086;-84
2021/09/11 19:50:06;;;;;;;54.95;30.85;;;;;;;15.17;71.49;99127.19;3911541;90;21067;-84
2021/09/11 19:56:10;;;;;;;53.68;31.35;;;;;;;14.97;71.72;99137.90;3841560;91;21026;-83
2021/09/11 20:02:13;;;;;;;55.35;33.13;;;;;;;14.80;72.44;99137.38;3839409;91;21103;-84
2021/09/11 20:08:17;;;;;;;62.05;34.30;;;;;;;14.67;72.61;99140.39;3905314;90;21092;-83
2021/09/11 20:14:22;;;;;;;55.45;31.27;;;;;;;14.56;73.08;99135.51;3909015;91;21081;-83
2021/09/11 20:20:26;;;;;;;56.18;32.42;;;;;;;14.59;73.63;99139.42;3908708;90;21970;-83
2021/09/11 20:26:36;;;;;;;51.70;30.68;;;;;;;14.48;73.60;99143.59;3855595;91;21654;-84
2021/09/11 20:32:45;;;;;;;48.33;30.90;;;;;;;14.44;73.92;99150.29;3885050;90;21814;-83
2021/09/11 20:39:02;;;;;;;42.70;28.00;;;;;;;14.28;74.29;99148.53;3852853;90;21118;-84
2021/09/11 20:45:05;;;;;;;47.98;28.65;;;;;;;14.17;74.80;99154.80;3909717;90;21095;-84
2021/09/11 20:51:07;;;;;;;47.05;28.95;;;;;;;14.04;74.93;99145.39;3869321;90;21110;-83
2021/09/11 20:57:09;;;;;;;50.63;30.08;;;;;;;13.87;75.13;99143.43;3863754;90;21693;-83
2021/09/11 21:03:13;;;;;;;43.95;26.30;;;;;;;13.69;75.58;99139.06;3909861;90;21127;-83
2021/09/11 21:09:14;;;;;;;47.40;27.50;;;;;;;13.68;76.53;99136.92;3905398;90;21202;-83
2021/09/11 21:15:16;;;;;;;45.40;27.05;;;;;;;13.66;75.83;99142.02;3911902;89;21107;-83
2021/09/11 21:21:17;;;;;;;47.67;28.02;;;;;;;13.49;76.26;99148.29;3872022;90;21241;-83
2021/09/11 21:27:18;;;;;;;46.30;28.55;;;;;;;13.45;76.87;99139.23;3850975;90;21176;-84
2021/09/11 21:33:20;;;;;;;38.35;25.00;;;;;;;13.28;76.99;99137.23;3843947;90;21161;-83
2021/09/11 21:39:25;;;;;;;35.20;21.68;;;;;;;13.34;78.27;99145.90;3925207;89;21125;-82
2021/09/11 21:45:26;;;;;;;37.17;23.12;;;;;;;13.62;78.50;99148.13;3922713;89;21584;-84
2021/09/11 21:51:31;;;;;;;37.93;22.93;;;;;;;13.54;77.92;99148.49;3900292;89;21114;-83
2021/09/11 21:57:33;;;;;;;30.10;19.48;;;;;;;13.51;78.33;99146.52;3915090;89;21050;-83
2021/09/11 22:03:34;;;;;;;32.90;19.20;;;;;;;13.48;79.10;99147.30;3892542;89;21097;-83
2021/09/11 22:09:35;;;;;;;37.25;19.70;;;;;;;13.58;78.68;99146.52;3895326;89;21125;-84
2021/09/11 22:15:39;;;;;;;32.03;19.80;;;;;;;13.37;78.67;99141.00;3920541;89;21156;-84
2021/09/11 22:21:40;;;;;;;33.90;20.32;;;;;;;13.36;79.65;99140.81;3911193;89;21534;-83
2021/09/11 22:27:41;;;;;;;28.57;18.65;;;;;;;13.46;79.20;99138.66;3891678;89;21118;-83
2021/09/11 22:33:43;;;;;;;30.52;19.02;;;;;;;13.37;79.82;99133.55;3859776;91;21147;-83
2021/09/11 22:39:44;;;;;;;31.75;18.90;;;;;;;13.41;79.69;99137.08;3822642;92;21108;-83
2021/09/11 22:45:53;;;;;;;32.60;18.77;;;;;;;13.28;79.95;99138.61;3816960;92;21834;-83
2021/09/11 22:51:57;;;;;;;27.05;17.62;;;;;;;13.27;79.87;99132.92;3821807;92;21111;-83
2021/09/11 22:57:58;;;;;;;28.62;18.50;;;;;;;13.13;80.39;99134.26;3814707;92;21097;-83
2021/09/11 23:04:04;;;;;;;28.57;18.10;;;;;;;13.20;80.10;99134.27;3816490;92;21527;-83
2021/09/11 23:10:06;;;;;;;26.40;17.67;;;;;;;12.93;79.86;99143.18;3821199;92;21111;-83
2021/09/11 23:16:08;;;;;;;30.77;17.15;;;;;;;12.76;79.90;99139.77;3818953;92;21115;-84
2021/09/11 23:22:09;;;;;;;28.42;16.65;;;;;;;12.76;80.50;99135.08;3821565;92;21092;-83
2021/09/11 23:28:10;;;;;;;29.92;18.50;;;;;;;12.82;81.47;99139.59;3831425;90;21164;-83
2021/09/11 23:34:11;;;;;;;24.40;16.75;;;;;;;12.73;80.85;99126.23;3842454;90;21079;-84
2021/09/11 23:40:13;;;;;;;24.95;16.37;;;;;;;12.61;81.29;99134.20;3916069;89;21074;-84
2021/09/11 23:46:19;;;;;;;25.08;16.50;;;;;;;12.67;81.18;99122.25;3840904;90;21594;-83
2021/09/11 23:52:20;;;;;;;24.67;15.85;;;;;;;12.52;82.39;99124.74;3841657;91;21093;-83
2021/09/11 23:58:21;;;;;;;25.10;15.38;;;;;;;12.63;82.44;99131.08;3923656;89;21610;-82
